sensor_id;sensor_type;location;lat;lon;timestamp;P1;durP1;ratioP1;P2;durP2;ratioP2
31978;SDS011;18502;43.574;1.276;2023-07-20T00:02:00;11.98;;;6.22;;
31978;SDS011;18502;43.574;1.276;2023-07-20T00:04:25;15.80;;;6.43;;
31978;SDS011;18502;43.574;1.276;2023-07-20T00:06:51;12.15;;;6.57;;
31978;SDS011;18502;43.574;1.276;2023-07-20T00:09:17;8.93;;;5.57;;
31978;SDS011;18502;43.574;1.276;2023-07-20T00:11:48;11.48;;;6.10;;
31978;SDS011;18502;43.574;1.276;2023-07-20T00:14:16;9.20;;;5.45;;
31978;SDS011;18502;43.574;1.276;2023-07-20T00:16:42;11.93;;;6.55;;
31978;SDS011;18502;43.574;1.276;2023-07-20T00:19:07;13.05;;;6.18;;
31978;SDS011;18502;43.574;1.276;2023-07-20T00:21:34;12.70;;;6.53;;
31978;SDS011;18502;43.574;1.276;2023-07-20T00:23:59;13.13;;;6.65;;
31978;SDS011;18502;43.574;1.276;2023-07-20T00:26:25;14.02;;;6.55;;
31978;SDS011;18502;43.574;1.276;2023-07-20T00:28:51;12.30;;;5.90;;
31978;SDS011;18502;43.574;1.276;2023-07-20T00:31:16;12.35;;;5.90;;
31978;SDS011;18502;43.574;1.276;2023-07-20T00:33:42;15.52;;;6.30;;
31978;SDS011;18502;43.574;1.276;2023-07-20T00:36:08;10.52;;;5.90;;
31978;SDS011;18502;43.574;1.276;2023-07-20T00:38:34;15.52;;;6.07;;
31978;SDS011;18502;43.574;1.276;2023-07-20T00:40:59;12.52;;;5.80;;
31978;SDS011;18502;43.574;1.276;2023-07-20T00:43:25;12.35;;;5.53;;
31978;SDS011;18502;43.574;1.276;2023-07-20T00:45:51;11.55;;;5.63;;
31978;SDS011;18502;43.574;1.276;2023-07-20T00:48:16;12.48;;;6.05;;
31978;SDS011;18502;43.574;1.276;2023-07-20T00:50:42;11.93;;;6.40;;
31978;SDS011;18502;43.574;1.276;2023-07-20T00:53:09;10.25;;;5.63;;
31978;SDS011;18502;43.574;1.276;2023-07-20T00:55:35;10.88;;;5.78;;
31978;SDS011;18502;43.574;1.276;2023-07-20T00:58:01;9.60;;;6.20;;
31978;SDS011;18502;43.574;1.276;2023-07-20T01:00:26;9.07;;;5.80;;
31978;SDS011;18502;43.574;1.276;2023-07-20T01:02:52;11.98;;;5.65;;
31978;SDS011;18502;43.574;1.276;2023-07-20T01:05:19;14.52;;;6.53;;
31978;SDS011;18502;43.574;1.276;2023-07-20T01:07:48;13.38;;;6.20;;
31978;SDS011;18502;43.574;1.276;2023-07-20T01:12:47;13.23;;;6.10;;
31978;SDS011;18502;43.574;1.276;2023-07-20T01:15:16;10.73;;;6.32;;
31978;SDS011;18502;43.574;1.276;2023-07-20T01:17:42;13.35;;;6.10;;
31978;SDS011;18502;43.574;1.276;2023-07-20T01:20:09;12.73;;;5.32;;
31978;SDS011;18502;43.574;1.276;2023-07-20T01:22:52;11.15;;;6.30;;
31978;SDS011;18502;43.574;1.276;2023-07-20T01:27:54;11.05;;;5.53;;
31978;SDS011;18502;43.574;1.276;2023-07-20T01:33:11;10.48;;;5.70;;
31978;SDS011;18502;43.574;1.276;2023-07-20T01:35:39;9.10;;;5.88;;
31978;SDS011;18502;43.574;1.276;2023-07-20T01:38:08;10.52;;;5.05;;
31978;SDS011;18502;43.574;1.276;2023-07-20T01:40:35;9.40;;;5.25;;
31978;SDS011;18502;43.574;1.276;2023-07-20T01:43:01;12.18;;;5.88;;
31978;SDS011;18502;43.574;1.276;2023-07-20T01:45:28;12.10;;;6.13;;
31978;SDS011;18502;43.574;1.276;2023-07-20T01:47:53;13.50;;;5.72;;
31978;SDS011;18502;43.574;1.276;2023-07-20T01:50:19;9.38;;;5.22;;
31978;SDS011;18502;43.574;1.276;2023-07-20T01:52:45;10.38;;;5.38;;
31978;SDS011;18502;43.574;1.276;2023-07-20T01:55:10;18.08;;;6.60;;
31978;SDS011;18502;43.574;1.276;2023-07-20T01:57:36;10.15;;;4.88;;
31978;SDS011;18502;43.574;1.276;2023-07-20T02:00:02;10.27;;;5.82;;
31978;SDS011;18502;43.574;1.276;2023-07-20T02:02:29;9.50;;;5.75;;
31978;SDS011;18502;43.574;1.276;2023-07-20T02:04:54;9.15;;;5.60;;
31978;SDS011;18502;43.574;1.276;2023-07-20T02:07:20;9.70;;;6.00;;
31978;SDS011;18502;43.574;1.276;2023-07-20T02:09:45;11.55;;;5.43;;
31978;SDS011;18502;43.574;1.276;2023-07-20T02:12:11;15.50;;;5.93;;
31978;SDS011;18502;43.574;1.276;2023-07-20T02:14:37;12.30;;;5.88;;
31978;SDS011;18502;43.574;1.276;2023-07-20T02:17:03;8.13;;;5.30;;
31978;SDS011;18502;43.574;1.276;2023-07-20T02:19:29;10.88;;;5.40;;
31978;SDS011;18502;43.574;1.276;2023-07-20T02:21:55;8.23;;;5.57;;
31978;SDS011;18502;43.574;1.276;2023-07-20T02:24:21;14.38;;;6.32;;
31978;SDS011;18502;43.574;1.276;2023-07-20T02:26:46;10.15;;;5.93;;
31978;SDS011;18502;43.574;1.276;2023-07-20T02:29:12;10.15;;;5.43;;
31978;SDS011;18502;43.574;1.276;2023-07-20T02:31:37;9.25;;;6.05;;
31978;SDS011;18502;43.574;1.276;2023-07-20T02:34:04;10.50;;;5.15;;
31978;SDS011;18502;43.574;1.276;2023-07-20T02:36:31;12.35;;;5.68;;
31978;SDS011;18502;43.574;1.276;2023-07-20T02:38:58;10.85;;;4.97;;
31978;SDS011;18502;43.574;1.276;2023-07-20T02:41:24;8.98;;;5.93;;
31978;SDS011;18502;43.574;1.276;2023-07-20T02:43:49;11.90;;;5.65;;
31978;SDS011;18502;43.574;1.276;2023-07-20T02:46:15;10.32;;;5.68;;
31978;SDS011;18502;43.574;1.276;2023-07-20T02:48:41;10.75;;;5.97;;
31978;SDS011;18502;43.574;1.276;2023-07-20T02:51:06;13.52;;;6.07;;
31978;SDS011;18502;43.574;1.276;2023-07-20T02:53:32;11.88;;;5.85;;
31978;SDS011;18502;43.574;1.276;2023-07-20T02:55:58;12.52;;;7.03;;
31978;SDS011;18502;43.574;1.276;2023-07-20T02:58:24;11.55;;;5.68;;
31978;SDS011;18502;43.574;1.276;2023-07-20T03:00:50;9.48;;;5.57;;
31978;SDS011;18502;43.574;1.276;2023-07-20T03:03:15;10.70;;;6.35;;
31978;SDS011;18502;43.574;1.276;2023-07-20T03:05:41;8.63;;;5.75;;
31978;SDS011;18502;43.574;1.276;2023-07-20T03:08:07;10.38;;;5.97;;
31978;SDS011;18502;43.574;1.276;2023-07-20T03:10:38;11.50;;;6.25;;
31978;SDS011;18502;43.574;1.276;2023-07-20T03:13:05;9.80;;;6.90;;
31978;SDS011;18502;43.574;1.276;2023-07-20T03:15:31;11.25;;;6.70;;
31978;SDS011;18502;43.574;1.276;2023-07-20T03:17:57;12.05;;;7.22;;
31978;SDS011;18502;43.574;1.276;2023-07-20T03:20:23;9.90;;;6.30;;
31978;SDS011;18502;43.574;1.276;2023-07-20T03:22:49;10.40;;;6.45;;
31978;SDS011;18502;43.574;1.276;2023-07-20T03:25:15;12.32;;;6.38;;
31978;SDS011;18502;43.574;1.276;2023-07-20T03:27:40;8.52;;;5.70;;
31978;SDS011;18502;43.574;1.276;2023-07-20T03:30:06;12.07;;;6.70;;
31978;SDS011;18502;43.574;1.276;2023-07-20T03:32:34;10.30;;;5.68;;
31978;SDS011;18502;43.574;1.276;2023-07-20T03:35:00;9.63;;;5.85;;
31978;SDS011;18502;43.574;1.276;2023-07-20T03:37:26;13.18;;;5.75;;
31978;SDS011;18502;43.574;1.276;2023-07-20T03:39:52;10.38;;;6.68;;
31978;SDS011;18502;43.574;1.276;2023-07-20T03:42:17;9.88;;;6.47;;
31978;SDS011;18502;43.574;1.276;2023-07-20T03:44:43;8.05;;;6.30;;
31978;SDS011;18502;43.574;1.276;2023-07-20T03:47:08;12.30;;;6.97;;
31978;SDS011;18502;43.574;1.276;2023-07-20T03:49:34;12.73;;;6.80;;
31978;SDS011;18502;43.574;1.276;2023-07-20T03:52:00;18.33;;;7.00;;
31978;SDS011;18502;43.574;1.276;2023-07-20T03:54:28;10.80;;;6.10;;
31978;SDS011;18502;43.574;1.276;2023-07-20T03:56:54;12.63;;;6.07;;
31978;SDS011;18502;43.574;1.276;2023-07-20T03:59:20;10.05;;;5.97;;
31978;SDS011;18502;43.574;1.276;2023-07-20T04:01:45;12.85;;;5.82;;
31978;SDS011;18502;43.574;1.276;2023-07-20T04:04:11;11.73;;;5.80;;
31978;SDS011;18502;43.574;1.276;2023-07-20T04:06:38;11.10;;;6.38;;
31978;SDS011;18502;43.574;1.276;2023-07-20T04:09:04;15.15;;;6.90;;
31978;SDS011;18502;43.574;1.276;2023-07-20T04:11:30;11.48;;;6.35;;
31978;SDS011;18502;43.574;1.276;2023-07-20T04:13:56;11.52;;;6.20;;
31978;SDS011;18502;43.574;1.276;2023-07-20T04:16:21;8.18;;;5.70;;
31978;SDS011;18502;43.574;1.276;2023-07-20T04:18:47;12.35;;;5.97;;
31978;SDS011;18502;43.574;1.276;2023-07-20T04:21:13;9.52;;;5.53;;
31978;SDS011;18502;43.574;1.276;2023-07-20T04:23:38;13.95;;;5.90;;
31978;SDS011;18502;43.574;1.276;2023-07-20T04:26:04;9.95;;;6.25;;
31978;SDS011;18502;43.574;1.276;2023-07-20T04:28:31;11.95;;;6.15;;
31978;SDS011;18502;43.574;1.276;2023-07-20T04:31:09;8.55;;;6.40;;
31978;SDS011;18502;43.574;1.276;2023-07-20T04:36:03;12.98;;;5.65;;
31978;SDS011;18502;43.574;1.276;2023-07-20T04:38:29;9.68;;;5.97;;
31978;SDS011;18502;43.574;1.276;2023-07-20T04:40:55;10.38;;;6.32;;
31978;SDS011;18502;43.574;1.276;2023-07-20T04:43:21;13.18;;;5.60;;
31978;SDS011;18502;43.574;1.276;2023-07-20T04:45:46;17.10;;;6.88;;
31978;SDS011;18502;43.574;1.276;2023-07-20T04:48:15;12.70;;;6.45;;
31978;SDS011;18502;43.574;1.276;2023-07-20T04:50:42;13.75;;;6.63;;
31978;SDS011;18502;43.574;1.276;2023-07-20T04:53:10;11.68;;;6.75;;
31978;SDS011;18502;43.574;1.276;2023-07-20T04:55:38;10.48;;;6.68;;
31978;SDS011;18502;43.574;1.276;2023-07-20T04:58:05;12.25;;;7.30;;
31978;SDS011;18502;43.574;1.276;2023-07-20T05:00:32;14.30;;;6.97;;
31978;SDS011;18502;43.574;1.276;2023-07-20T05:02:58;10.65;;;6.43;;
31978;SDS011;18502;43.574;1.276;2023-07-20T05:05:24;8.88;;;6.35;;
31978;SDS011;18502;43.574;1.276;2023-07-20T05:07:50;11.10;;;6.38;;
31978;SDS011;18502;43.574;1.276;2023-07-20T05:10:15;13.48;;;6.88;;
31978;SDS011;18502;43.574;1.276;2023-07-20T05:12:41;11.65;;;6.72;;
31978;SDS011;18502;43.574;1.276;2023-07-20T05:15:07;11.77;;;6.45;;
31978;SDS011;18502;43.574;1.276;2023-07-20T05:17:33;10.20;;;6.28;;
31978;SDS011;18502;43.574;1.276;2023-07-20T05:19:59;9.70;;;6.05;;
31978;SDS011;18502;43.574;1.276;2023-07-20T05:22:24;9.70;;;5.22;;
31978;SDS011;18502;43.574;1.276;2023-07-20T05:24:50;10.75;;;6.22;;
31978;SDS011;18502;43.574;1.276;2023-07-20T05:27:16;10.15;;;6.55;;
31978;SDS011;18502;43.574;1.276;2023-07-20T05:29:45;9.75;;;5.93;;
31978;SDS011;18502;43.574;1.276;2023-07-20T05:32:11;9.85;;;5.57;;
31978;SDS011;18502;43.574;1.276;2023-07-20T05:34:37;14.38;;;6.32;;
31978;SDS011;18502;43.574;1.276;2023-07-20T05:37:03;12.07;;;5.55;;
31978;SDS011;18502;43.574;1.276;2023-07-20T05:39:29;10.38;;;6.05;;
31978;SDS011;18502;43.574;1.276;2023-07-20T05:41:54;12.50;;;6.57;;
31978;SDS011;18502;43.574;1.276;2023-07-20T05:44:20;9.93;;;5.40;;
31978;SDS011;18502;43.574;1.276;2023-07-20T05:46:46;11.43;;;5.40;;
31978;SDS011;18502;43.574;1.276;2023-07-20T05:49:11;11.48;;;5.93;;
31978;SDS011;18502;43.574;1.276;2023-07-20T05:51:37;12.65;;;6.30;;
31978;SDS011;18502;43.574;1.276;2023-07-20T05:54:03;8.25;;;5.30;;
31978;SDS011;18502;43.574;1.276;2023-07-20T05:56:28;9.48;;;5.55;;
31978;SDS011;18502;43.574;1.276;2023-07-20T05:58:54;9.90;;;5.50;;
31978;SDS011;18502;43.574;1.276;2023-07-20T06:01:19;9.07;;;5.10;;
31978;SDS011;18502;43.574;1.276;2023-07-20T06:03:45;10.50;;;5.63;;
31978;SDS011;18502;43.574;1.276;2023-07-20T06:06:11;9.73;;;5.50;;
31978;SDS011;18502;43.574;1.276;2023-07-20T06:08:37;7.65;;;5.22;;
31978;SDS011;18502;43.574;1.276;2023-07-20T06:11:03;10.82;;;5.18;;
31978;SDS011;18502;43.574;1.276;2023-07-20T06:13:29;6.10;;;4.32;;
31978;SDS011;18502;43.574;1.276;2023-07-20T06:15:56;11.25;;;4.72;;
31978;SDS011;18502;43.574;1.276;2023-07-20T06:18:24;7.55;;;4.80;;
31978;SDS011;18502;43.574;1.276;2023-07-20T06:20:50;5.90;;;4.70;;
31978;SDS011;18502;43.574;1.276;2023-07-20T06:23:17;7.60;;;5.13;;
31978;SDS011;18502;43.574;1.276;2023-07-20T06:25:44;9.45;;;4.85;;
31978;SDS011;18502;43.574;1.276;2023-07-20T06:28:10;7.75;;;4.20;;
31978;SDS011;18502;43.574;1.276;2023-07-20T06:30:35;6.68;;;4.80;;
31978;SDS011;18502;43.574;1.276;2023-07-20T06:33:01;6.45;;;4.05;;
31978;SDS011;18502;43.574;1.276;2023-07-20T06:35:26;7.15;;;3.80;;
31978;SDS011;18502;43.574;1.276;2023-07-20T06:37:52;8.50;;;3.58;;
31978;SDS011;18502;43.574;1.276;2023-07-20T06:40:18;8.73;;;3.80;;
31978;SDS011;18502;43.574;1.276;2023-07-20T06:42:43;7.45;;;3.60;;
31978;SDS011;18502;43.574;1.276;2023-07-20T06:45:09;7.07;;;3.75;;
31978;SDS011;18502;43.574;1.276;2023-07-20T06:47:37;4.18;;;3.00;;
31978;SDS011;18502;43.574;1.276;2023-07-20T06:50:05;8.10;;;3.38;;
31978;SDS011;18502;43.574;1.276;2023-07-20T06:52:31;6.45;;;3.40;;
31978;SDS011;18502;43.574;1.276;2023-07-20T06:54:57;6.65;;;3.22;;
31978;SDS011;18502;43.574;1.276;2023-07-20T06:57:23;6.50;;;3.05;;
31978;SDS011;18502;43.574;1.276;2023-07-20T06:59:49;6.88;;;3.45;;
31978;SDS011;18502;43.574;1.276;2023-07-20T07:02:14;5.82;;;3.28;;
31978;SDS011;18502;43.574;1.276;2023-07-20T07:04:40;5.38;;;3.70;;
31978;SDS011;18502;43.574;1.276;2023-07-20T07:07:06;4.53;;;2.95;;
31978;SDS011;18502;43.574;1.276;2023-07-20T07:09:32;4.97;;;2.60;;
31978;SDS011;18502;43.574;1.276;2023-07-20T07:11:58;5.18;;;2.35;;
31978;SDS011;18502;43.574;1.276;2023-07-20T07:14:23;5.70;;;2.58;;
31978;SDS011;18502;43.574;1.276;2023-07-20T07:16:49;9.00;;;3.10;;
31978;SDS011;18502;43.574;1.276;2023-07-20T07:19:15;6.30;;;2.63;;
31978;SDS011;18502;43.574;1.276;2023-07-20T07:21:40;4.97;;;2.60;;
31978;SDS011;18502;43.574;1.276;2023-07-20T07:24:06;5.15;;;2.40;;
31978;SDS011;18502;43.574;1.276;2023-07-20T07:26:32;4.93;;;2.50;;
31978;SDS011;18502;43.574;1.276;2023-07-20T07:28:58;4.18;;;2.40;;
31978;SDS011;18502;43.574;1.276;2023-07-20T07:31:28;5.70;;;2.60;;
31978;SDS011;18502;43.574;1.276;2023-07-20T07:33:55;3.90;;;2.42;;
31978;SDS011;18502;43.574;1.276;2023-07-20T07:36:21;6.93;;;3.03;;
31978;SDS011;18502;43.574;1.276;2023-07-20T07:38:46;5.40;;;2.90;;
31978;SDS011;18502;43.574;1.276;2023-07-20T07:41:13;4.40;;;2.08;;
31978;SDS011;18502;43.574;1.276;2023-07-20T07:43:39;3.65;;;2.10;;
31978;SDS011;18502;43.574;1.276;2023-07-20T07:46:04;3.55;;;2.40;;
31978;SDS011;18502;43.574;1.276;2023-07-20T07:48:30;7.28;;;2.50;;
31978;SDS011;18502;43.574;1.276;2023-07-20T07:50:56;8.05;;;2.47;;
31978;SDS011;18502;43.574;1.276;2023-07-20T07:53:21;5.50;;;2.10;;
31978;SDS011;18502;43.574;1.276;2023-07-20T07:55:47;4.00;;;1.88;;
31978;SDS011;18502;43.574;1.276;2023-07-20T07:58:13;4.07;;;2.17;;
31978;SDS011;18502;43.574;1.276;2023-07-20T08:00:39;2.85;;;1.50;;
31978;SDS011;18502;43.574;1.276;2023-07-20T08:03:08;5.05;;;2.03;;
31978;SDS011;18502;43.574;1.276;2023-07-20T08:05:33;3.75;;;2.00;;
31978;SDS011;18502;43.574;1.276;2023-07-20T08:08:00;5.00;;;1.83;;
31978;SDS011;18502;43.574;1.276;2023-07-20T08:10:26;4.63;;;2.13;;
31978;SDS011;18502;43.574;1.276;2023-07-20T08:12:52;4.97;;;2.22;;
31978;SDS011;18502;43.574;1.276;2023-07-20T08:15:17;5.30;;;1.98;;
31978;SDS011;18502;43.574;1.276;2023-07-20T08:17:43;4.78;;;2.17;;
31978;SDS011;18502;43.574;1.276;2023-07-20T08:20:09;4.35;;;2.05;;
31978;SDS011;18502;43.574;1.276;2023-07-20T08:22:38;3.92;;;1.88;;
31978;SDS011;18502;43.574;1.276;2023-07-20T08:25:05;3.20;;;1.90;;
31978;SDS011;18502;43.574;1.276;2023-07-20T08:27:31;3.08;;;2.05;;
31978;SDS011;18502;43.574;1.276;2023-07-20T08:29:57;5.25;;;1.88;;
31978;SDS011;18502;43.574;1.276;2023-07-20T08:32:22;6.65;;;1.80;;
31978;SDS011;18502;43.574;1.276;2023-07-20T08:34:48;7.05;;;2.08;;
31978;SDS011;18502;43.574;1.276;2023-07-20T08:37:14;9.30;;;2.35;;
31978;SDS011;18502;43.574;1.276;2023-07-20T08:39:39;5.35;;;2.22;;
31978;SDS011;18502;43.574;1.276;2023-07-20T08:42:05;7.82;;;2.30;;
31978;SDS011;18502;43.574;1.276;2023-07-20T08:44:34;6.75;;;1.90;;
31978;SDS011;18502;43.574;1.276;2023-07-20T08:47:02;6.70;;;1.85;;
31978;SDS011;18502;43.574;1.276;2023-07-20T08:49:29;7.18;;;1.95;;
31978;SDS011;18502;43.574;1.276;2023-07-20T08:51:57;9.60;;;1.77;;
31978;SDS011;18502;43.574;1.276;2023-07-20T08:54:24;2.80;;;1.52;;
31978;SDS011;18502;43.574;1.276;2023-07-20T08:56:54;1.23;;;1.13;;
31978;SDS011;18502;43.574;1.276;2023-07-20T08:59:22;2.08;;;1.50;;
31978;SDS011;18502;43.574;1.276;2023-07-20T09:01:49;3.88;;;1.83;;
31978;SDS011;18502;43.574;1.276;2023-07-20T09:04:19;2.72;;;1.52;;
31978;SDS011;18502;43.574;1.276;2023-07-20T09:06:44;3.30;;;1.88;;
31978;SDS011;18502;43.574;1.276;2023-07-20T09:09:10;1.73;;;1.20;;
31978;SDS011;18502;43.574;1.276;2023-07-20T09:11:36;4.65;;;1.88;;
31978;SDS011;18502;43.574;1.276;2023-07-20T09:14:04;4.35;;;1.80;;
31978;SDS011;18502;43.574;1.276;2023-07-20T09:16:31;3.78;;;1.83;;
31978;SDS011;18502;43.574;1.276;2023-07-20T09:19:00;5.18;;;1.50;;
31978;SDS011;18502;43.574;1.276;2023-07-20T09:21:28;4.60;;;1.40;;
31978;SDS011;18502;43.574;1.276;2023-07-20T09:23:58;2.85;;;1.58;;
31978;SDS011;18502;43.574;1.276;2023-07-20T09:26:24;3.85;;;1.58;;
31978;SDS011;18502;43.574;1.276;2023-07-20T09:28:51;3.38;;;1.45;;
31978;SDS011;18502;43.574;1.276;2023-07-20T09:31:18;3.42;;;1.95;;
31978;SDS011;18502;43.574;1.276;2023-07-20T09:33:45;3.17;;;1.38;;
31978;SDS011;18502;43.574;1.276;2023-07-20T09:36:11;1.77;;;1.60;;
31978;SDS011;18502;43.574;1.276;2023-07-20T09:38:38;1.92;;;1.60;;
31978;SDS011;18502;43.574;1.276;2023-07-20T09:41:05;5.25;;;2.20;;
31978;SDS011;18502;43.574;1.276;2023-07-20T09:43:34;3.83;;;1.65;;
31978;SDS011;18502;43.574;1.276;2023-07-20T09:46:00;4.23;;;1.97;;
31978;SDS011;18502;43.574;1.276;2023-07-20T09:48:26;3.03;;;1.88;;
31978;SDS011;18502;43.574;1.276;2023-07-20T09:50:53;6.50;;;1.83;;
31978;SDS011;18502;43.574;1.276;2023-07-20T09:53:19;2.85;;;1.52;;
31978;SDS011;18502;43.574;1.276;2023-07-20T09:55:45;2.83;;;1.40;;
31978;SDS011;18502;43.574;1.276;2023-07-20T09:58:13;3.15;;;1.65;;
31978;SDS011;18502;43.574;1.276;2023-07-20T10:00:40;3.33;;;1.60;;
31978;SDS011;18502;43.574;1.276;2023-07-20T10:03:18;3.70;;;1.50;;
31978;SDS011;18502;43.574;1.276;2023-07-20T10:05:51;8.68;;;1.85;;
31978;SDS011;18502;43.574;1.276;2023-07-20T10:08:28;2.42;;;1.77;;
31978;SDS011;18502;43.574;1.276;2023-07-20T10:10:55;1.70;;;1.40;;
31978;SDS011;18502;43.574;1.276;2023-07-20T10:13:29;3.80;;;1.45;;
31978;SDS011;18502;43.574;1.276;2023-07-20T10:16:09;2.38;;;1.52;;
31978;SDS011;18502;43.574;1.276;2023-07-20T10:21:30;4.10;;;1.70;;
31978;SDS011;18502;43.574;1.276;2023-07-20T10:23:58;4.18;;;1.80;;
31978;SDS011;18502;43.574;1.276;2023-07-20T10:26:26;2.22;;;1.55;;
31978;SDS011;18502;43.574;1.276;2023-07-20T10:28:51;1.92;;;1.60;;
31978;SDS011;18502;43.574;1.276;2023-07-20T10:31:18;2.58;;;1.67;;
31978;SDS011;18502;43.574;1.276;2023-07-20T10:33:45;5.45;;;1.60;;
31978;SDS011;18502;43.574;1.276;2023-07-20T10:36:11;4.18;;;1.40;;
31978;SDS011;18502;43.574;1.276;2023-07-20T10:41:16;2.78;;;1.27;;
31978;SDS011;18502;43.574;1.276;2023-07-20T10:43:42;3.90;;;1.35;;
31978;SDS011;18502;43.574;1.276;2023-07-20T10:46:10;3.50;;;1.90;;
31978;SDS011;18502;43.574;1.276;2023-07-20T10:48:36;1.77;;;1.52;;
31978;SDS011;18502;43.574;1.276;2023-07-20T10:51:25;3.58;;;1.67;;
31978;SDS011;18502;43.574;1.276;2023-07-20T10:53:51;5.15;;;1.50;;
31978;SDS011;18502;43.574;1.276;2023-07-20T10:56:21;2.13;;;1.40;;
31978;SDS011;18502;43.574;1.276;2023-07-20T10:58:47;3.45;;;1.42;;
31978;SDS011;18502;43.574;1.276;2023-07-20T11:01:13;3.15;;;1.45;;
31978;SDS011;18502;43.574;1.276;2023-07-20T11:03:42;3.83;;;1.57;;
31978;SDS011;18502;43.574;1.276;2023-07-20T11:09:03;4.97;;;1.75;;
31978;SDS011;18502;43.574;1.276;2023-07-20T11:11:33;8.63;;;1.73;;
31978;SDS011;18502;43.574;1.276;2023-07-20T11:14:04;8.95;;;6.55;;
31978;SDS011;18502;43.574;1.276;2023-07-20T11:16:40;2.47;;;1.42;;
31978;SDS011;18502;43.574;1.276;2023-07-20T11:21:43;2.05;;;1.58;;
31978;SDS011;18502;43.574;1.276;2023-07-20T11:24:10;1.40;;;1.20;;
31978;SDS011;18502;43.574;1.276;2023-07-20T11:26:54;2.92;;;1.38;;
31978;SDS011;18502;43.574;1.276;2023-07-20T11:29:20;4.32;;;1.42;;
31978;SDS011;18502;43.574;1.276;2023-07-20T11:31:48;7.00;;;1.80;;
31978;SDS011;18502;43.574;1.276;2023-07-20T11:34:15;1.90;;;1.30;;
31978;SDS011;18502;43.574;1.276;2023-07-20T11:36:47;3.25;;;1.65;;
31978;SDS011;18502;43.574;1.276;2023-07-20T11:39:15;7.95;;;1.70;;
31978;SDS011;18502;43.574;1.276;2023-07-20T11:41:54;6.63;;;1.85;;
31978;SDS011;18502;43.574;1.276;2023-07-20T11:44:25;4.07;;;2.00;;
31978;SDS011;18502;43.574;1.276;2023-07-20T11:47:05;4.18;;;1.90;;
31978;SDS011;18502;43.574;1.276;2023-07-20T11:49:35;3.80;;;1.80;;
31978;SDS011;18502;43.574;1.276;2023-07-20T11:52:02;5.72;;;1.98;;
31978;SDS011;18502;43.574;1.276;2023-07-20T11:54:30;4.10;;;1.40;;
31978;SDS011;18502;43.574;1.276;2023-07-20T11:56:56;3.78;;;1.58;;
31978;SDS011;18502;43.574;1.276;2023-07-20T11:59:25;2.60;;;1.33;;
31978;SDS011;18502;43.574;1.276;2023-07-20T12:01:51;2.63;;;1.42;;
31978;SDS011;18502;43.574;1.276;2023-07-20T12:04:17;3.78;;;1.75;;
31978;SDS011;18502;43.574;1.276;2023-07-20T12:06:45;2.45;;;1.50;;
31978;SDS011;18502;43.574;1.276;2023-07-20T12:09:14;3.17;;;1.30;;
31978;SDS011;18502;43.574;1.276;2023-07-20T12:11:42;5.38;;;1.60;;
31978;SDS011;18502;43.574;1.276;2023-07-20T12:14:09;2.85;;;1.60;;
31978;SDS011;18502;43.574;1.276;2023-07-20T12:16:36;3.70;;;1.50;;
31978;SDS011;18502;43.574;1.276;2023-07-20T12:19:12;2.80;;;1.30;;
31978;SDS011;18502;43.574;1.276;2023-07-20T12:21:39;2.80;;;1.30;;
31978;SDS011;18502;43.574;1.276;2023-07-20T12:24:06;3.58;;;1.67;;
31978;SDS011;18502;43.574;1.276;2023-07-20T12:26:34;4.55;;;1.48;;
31978;SDS011;18502;43.574;1.276;2023-07-20T12:29:00;4.60;;;1.90;;
31978;SDS011;18502;43.574;1.276;2023-07-20T12:31:26;3.00;;;1.42;;
31978;SDS011;18502;43.574;1.276;2023-07-20T12:33:52;1.77;;;1.30;;
31978;SDS011;18502;43.574;1.276;2023-07-20T12:38:47;1.90;;;1.40;;
31978;SDS011;18502;43.574;1.276;2023-07-20T12:41:13;4.82;;;1.88;;
31978;SDS011;18502;43.574;1.276;2023-07-20T12:43:43;1.85;;;1.60;;
31978;SDS011;18502;43.574;1.276;2023-07-20T12:46:10;2.97;;;1.40;;
31978;SDS011;18502;43.574;1.276;2023-07-20T12:48:37;7.13;;;1.42;;
31978;SDS011;18502;43.574;1.276;2023-07-20T12:51:05;2.83;;;1.45;;
31978;SDS011;18502;43.574;1.276;2023-07-20T12:53:31;2.25;;;1.70;;
31978;SDS011;18502;43.574;1.276;2023-07-20T12:55:57;7.70;;;2.08;;
31978;SDS011;18502;43.574;1.276;2023-07-20T12:58:23;3.08;;;1.52;;
31978;SDS011;18502;43.574;1.276;2023-07-20T13:00:49;3.72;;;2.00;;
31978;SDS011;18502;43.574;1.276;2023-07-20T13:03:15;3.67;;;1.70;;
31978;SDS011;18502;43.574;1.276;2023-07-20T13:05:41;1.73;;;1.42;;
31978;SDS011;18502;43.574;1.276;2023-07-20T13:08:07;1.90;;;1.52;;
31978;SDS011;18502;43.574;1.276;2023-07-20T13:10:32;5.78;;;1.55;;
31978;SDS011;18502;43.574;1.276;2023-07-20T13:12:59;2.28;;;1.40;;
31978;SDS011;18502;43.574;1.276;2023-07-20T13:15:29;2.88;;;1.35;;
31978;SDS011;18502;43.574;1.276;2023-07-20T13:17:56;3.08;;;1.80;;
31978;SDS011;18502;43.574;1.276;2023-07-20T13:20:22;2.55;;;1.63;;
31978;SDS011;18502;43.574;1.276;2023-07-20T13:22:48;2.25;;;1.48;;
31978;SDS011;18502;43.574;1.276;2023-07-20T13:25:14;1.90;;;1.55;;
31978;SDS011;18502;43.574;1.276;2023-07-20T13:30:24;1.65;;;1.33;;
31978;SDS011;18502;43.574;1.276;2023-07-20T13:32:49;1.70;;;1.60;;
31978;SDS011;18502;43.574;1.276;2023-07-20T13:35:15;1.67;;;1.52;;
31978;SDS011;18502;43.574;1.276;2023-07-20T13:37:41;3.90;;;1.80;;
31978;SDS011;18502;43.574;1.276;2023-07-20T13:40:07;2.58;;;1.20;;
31978;SDS011;18502;43.574;1.276;2023-07-20T13:42:38;4.15;;;1.65;;
31978;SDS011;18502;43.574;1.276;2023-07-20T13:45:05;4.25;;;1.80;;
31978;SDS011;18502;43.574;1.276;2023-07-20T13:47:31;5.07;;;1.63;;
31978;SDS011;18502;43.574;1.276;2023-07-20T13:49:57;2.15;;;1.95;;
31978;SDS011;18502;43.574;1.276;2023-07-20T13:52:22;1.70;;;1.48;;
31978;SDS011;18502;43.574;1.276;2023-07-20T13:54:48;4.15;;;1.58;;
31978;SDS011;18502;43.574;1.276;2023-07-20T13:57:14;1.92;;;1.50;;
31978;SDS011;18502;43.574;1.276;2023-07-20T13:59:40;2.97;;;1.50;;
31978;SDS011;18502;43.574;1.276;2023-07-20T14:02:06;3.60;;;1.73;;
31978;SDS011;18502;43.574;1.276;2023-07-20T14:04:32;3.47;;;1.63;;
31978;SDS011;18502;43.574;1.276;2023-07-20T14:06:58;3.13;;;2.10;;
31978;SDS011;18502;43.574;1.276;2023-07-20T14:09:23;3.50;;;1.77;;
31978;SDS011;18502;43.574;1.276;2023-07-20T14:11:49;3.17;;;1.92;;
31978;SDS011;18502;43.574;1.276;2023-07-20T14:14:14;3.60;;;1.70;;
31978;SDS011;18502;43.574;1.276;2023-07-20T14:16:40;2.75;;;1.65;;
31978;SDS011;18502;43.574;1.276;2023-07-20T14:19:06;4.18;;;1.60;;
31978;SDS011;18502;43.574;1.276;2023-07-20T14:21:32;4.15;;;1.65;;
31978;SDS011;18502;43.574;1.276;2023-07-20T14:23:58;2.15;;;1.70;;
31978;SDS011;18502;43.574;1.276;2023-07-20T14:26:23;3.35;;;1.80;;
31978;SDS011;18502;43.574;1.276;2023-07-20T14:28:49;1.67;;;1.52;;
31978;SDS011;18502;43.574;1.276;2023-07-20T14:31:15;3.80;;;1.50;;
31978;SDS011;18502;43.574;1.276;2023-07-20T14:33:41;2.55;;;1.90;;
31978;SDS011;18502;43.574;1.276;2023-07-20T14:36:06;3.22;;;1.58;;
31978;SDS011;18502;43.574;1.276;2023-07-20T14:38:33;2.55;;;1.70;;
31978;SDS011;18502;43.574;1.276;2023-07-20T14:40:59;4.00;;;1.70;;
31978;SDS011;18502;43.574;1.276;2023-07-20T14:43:24;2.05;;;1.65;;
31978;SDS011;18502;43.574;1.276;2023-07-20T14:45:50;3.33;;;1.70;;
31978;SDS011;18502;43.574;1.276;2023-07-20T14:48:16;1.95;;;1.75;;
31978;SDS011;18502;43.574;1.276;2023-07-20T14:50:41;2.80;;;1.90;;
31978;SDS011;18502;43.574;1.276;2023-07-20T14:53:10;2.47;;;1.73;;
31978;SDS011;18502;43.574;1.276;2023-07-20T14:55:37;3.28;;;1.90;;
31978;SDS011;18502;43.574;1.276;2023-07-20T14:58:02;1.90;;;1.70;;
31978;SDS011;18502;43.574;1.276;2023-07-20T15:00:28;2.90;;;1.98;;
31978;SDS011;18502;43.574;1.276;2023-07-20T15:02:55;4.38;;;1.88;;
31978;SDS011;18502;43.574;1.276;2023-07-20T15:05:21;4.03;;;1.70;;
31978;SDS011;18502;43.574;1.276;2023-07-20T15:07:49;2.13;;;1.75;;